Terminal Aerodrome Forecast
Issued by NWS

Home | Current Version | Previous Version | Text Only | Print | Product List | Glossary On
Versions: 1 2 3 4 5 6 7 8 9 10 11 12 13
450
FTUS43 KGRB 041138
TAFCWA
TAF
KCWA 041138Z 0412/0512 33010KT P6SM SCT025 BKN070
      TEMPO 0412/0414 BKN025
     FM041400 35014G22KT P6SM BKN035 BKN070
     FM042200 35012G18KT P6SM SCT070
     FM050300 35008KT P6SM SKC=

USA.gov is the U.S. government's official web portal to all federal, state and local government web resources and services.